sensor_id;sensor_type;location;lat;lon;timestamp;P1;durP1;ratioP1;P2;durP2;ratioP2
17510;SDS011;8873;48.818;9.422;2022-10-16T00:00:40;6.20;;;4.70;;
17510;SDS011;8873;48.818;9.422;2022-10-16T00:03:09;8.25;;;4.32;;
17510;SDS011;8873;48.818;9.422;2022-10-16T00:05:40;6.47;;;4.40;;
17510;SDS011;8873;48.818;9.422;2022-10-16T00:08:08;5.25;;;4.30;;
17510;SDS011;8873;48.818;9.422;2022-10-16T00:10:37;9.30;;;4.65;;
17510;SDS011;8873;48.818;9.422;2022-10-16T00:13:05;11.70;;;4.85;;
17510;SDS011;8873;48.818;9.422;2022-10-16T00:15:33;7.78;;;4.75;;
17510;SDS011;8873;48.818;9.422;2022-10-16T00:18:02;8.02;;;4.63;;
17510;SDS011;8873;48.818;9.422;2022-10-16T00:20:30;11.23;;;4.53;;
17510;SDS011;8873;48.818;9.422;2022-10-16T00:22:59;5.97;;;4.75;;
17510;SDS011;8873;48.818;9.422;2022-10-16T00:25:27;12.38;;;4.53;;
17510;SDS011;8873;48.818;9.422;2022-10-16T00:27:56;9.75;;;4.30;;
17510;SDS011;8873;48.818;9.422;2022-10-16T00:30:23;12.13;;;4.63;;
17510;SDS011;8873;48.818;9.422;2022-10-16T00:32:53;11.27;;;4.90;;
17510;SDS011;8873;48.818;9.422;2022-10-16T00:35:20;14.90;;;5.20;;
17510;SDS011;8873;48.818;9.422;2022-10-16T00:37:48;11.60;;;4.85;;
17510;SDS011;8873;48.818;9.422;2022-10-16T00:40:15;9.18;;;4.90;;
17510;SDS011;8873;48.818;9.422;2022-10-16T00:42:43;8.57;;;5.10;;
17510;SDS011;8873;48.818;9.422;2022-10-16T00:45:12;8.98;;;5.47;;
17510;SDS011;8873;48.818;9.422;2022-10-16T00:47:40;8.30;;;4.45;;
17510;SDS011;8873;48.818;9.422;2022-10-16T00:50:09;12.50;;;4.78;;
17510;SDS011;8873;48.818;9.422;2022-10-16T00:52:39;10.77;;;4.85;;
17510;SDS011;8873;48.818;9.422;2022-10-16T00:55:07;13.77;;;4.90;;
17510;SDS011;8873;48.818;9.422;2022-10-16T00:57:36;10.60;;;4.80;;
17510;SDS011;8873;48.818;9.422;2022-10-16T01:00:04;8.75;;;4.65;;
17510;SDS011;8873;48.818;9.422;2022-10-16T01:02:33;6.38;;;4.35;;
17510;SDS011;8873;48.818;9.422;2022-10-16T01:05:00;8.38;;;4.55;;
17510;SDS011;8873;48.818;9.422;2022-10-16T01:07:30;14.45;;;4.40;;
17510;SDS011;8873;48.818;9.422;2022-10-16T01:10:05;10.40;;;4.22;;
17510;SDS011;8873;48.818;9.422;2022-10-16T01:12:38;13.55;;;5.07;;
17510;SDS011;8873;48.818;9.422;2022-10-16T01:15:14;10.45;;;4.50;;
17510;SDS011;8873;48.818;9.422;2022-10-16T01:17:47;7.65;;;4.50;;
17510;SDS011;8873;48.818;9.422;2022-10-16T01:20:18;8.32;;;4.72;;
17510;SDS011;8873;48.818;9.422;2022-10-16T01:22:50;11.45;;;5.18;;
17510;SDS011;8873;48.818;9.422;2022-10-16T01:25:25;12.38;;;5.10;;
17510;SDS011;8873;48.818;9.422;2022-10-16T01:27:54;11.75;;;4.97;;
17510;SDS011;8873;48.818;9.422;2022-10-16T01:30:24;9.38;;;4.78;;
17510;SDS011;8873;48.818;9.422;2022-10-16T01:32:54;6.28;;;4.47;;
17510;SDS011;8873;48.818;9.422;2022-10-16T01:35:25;7.32;;;4.70;;
17510;SDS011;8873;48.818;9.422;2022-10-16T01:37:54;9.45;;;4.40;;
17510;SDS011;8873;48.818;9.422;2022-10-16T01:40:25;18.73;;;5.03;;
17510;SDS011;8873;48.818;9.422;2022-10-16T01:42:56;15.13;;;5.65;;
17510;SDS011;8873;48.818;9.422;2022-10-16T01:45:26;13.20;;;4.72;;
17510;SDS011;8873;48.818;9.422;2022-10-16T01:47:55;8.90;;;5.15;;
17510;SDS011;8873;48.818;9.422;2022-10-16T01:50:23;7.90;;;4.90;;
17510;SDS011;8873;48.818;9.422;2022-10-16T01:52:51;10.40;;;5.00;;
17510;SDS011;8873;48.818;9.422;2022-10-16T01:55:22;8.05;;;4.47;;
17510;SDS011;8873;48.818;9.422;2022-10-16T01:57:51;7.40;;;5.03;;
17510;SDS011;8873;48.818;9.422;2022-10-16T02:00:21;7.72;;;4.65;;
17510;SDS011;8873;48.818;9.422;2022-10-16T02:02:50;8.57;;;4.70;;
17510;SDS011;8873;48.818;9.422;2022-10-16T02:05:20;6.35;;;4.40;;
17510;SDS011;8873;48.818;9.422;2022-10-16T02:07:50;8.07;;;4.50;;
17510;SDS011;8873;48.818;9.422;2022-10-16T02:10:17;9.18;;;5.40;;
17510;SDS011;8873;48.818;9.422;2022-10-16T02:12:46;16.90;;;5.10;;
17510;SDS011;8873;48.818;9.422;2022-10-16T02:15:15;8.50;;;4.93;;
17510;SDS011;8873;48.818;9.422;2022-10-16T02:17:44;5.88;;;5.05;;
17510;SDS011;8873;48.818;9.422;2022-10-16T02:20:11;9.00;;;4.88;;
17510;SDS011;8873;48.818;9.422;2022-10-16T02:22:40;10.45;;;5.25;;
17510;SDS011;8873;48.818;9.422;2022-10-16T02:25:09;13.98;;;5.70;;
17510;SDS011;8873;48.818;9.422;2022-10-16T02:27:39;7.38;;;4.72;;
17510;SDS011;8873;48.818;9.422;2022-10-16T02:30:08;11.98;;;5.63;;
17510;SDS011;8873;48.818;9.422;2022-10-16T02:32:39;12.85;;;5.10;;
17510;SDS011;8873;48.818;9.422;2022-10-16T02:35:09;19.63;;;6.55;;
17510;SDS011;8873;48.818;9.422;2022-10-16T02:37:37;9.98;;;5.80;;
17510;SDS011;8873;48.818;9.422;2022-10-16T02:40:06;11.95;;;5.68;;
17510;SDS011;8873;48.818;9.422;2022-10-16T02:42:34;11.57;;;5.60;;
17510;SDS011;8873;48.818;9.422;2022-10-16T02:45:02;16.15;;;6.18;;
17510;SDS011;8873;48.818;9.422;2022-10-16T02:47:30;13.20;;;6.97;;
17510;SDS011;8873;48.818;9.422;2022-10-16T02:49:57;10.60;;;5.75;;
17510;SDS011;8873;48.818;9.422;2022-10-16T02:52:26;9.70;;;5.57;;
17510;SDS011;8873;48.818;9.422;2022-10-16T02:54:54;9.27;;;6.13;;
17510;SDS011;8873;48.818;9.422;2022-10-16T02:57:22;7.80;;;5.78;;
17510;SDS011;8873;48.818;9.422;2022-10-16T02:59:50;19.38;;;6.07;;
17510;SDS011;8873;48.818;9.422;2022-10-16T03:02:17;9.20;;;5.50;;
17510;SDS011;8873;48.818;9.422;2022-10-16T03:04:45;10.05;;;5.40;;
17510;SDS011;8873;48.818;9.422;2022-10-16T03:07:13;10.90;;;5.70;;
17510;SDS011;8873;48.818;9.422;2022-10-16T03:09:41;15.48;;;5.85;;
17510;SDS011;8873;48.818;9.422;2022-10-16T03:12:09;15.32;;;5.75;;
17510;SDS011;8873;48.818;9.422;2022-10-16T03:14:38;12.05;;;5.90;;
17510;SDS011;8873;48.818;9.422;2022-10-16T03:17:06;17.88;;;6.07;;
17510;SDS011;8873;48.818;9.422;2022-10-16T03:19:34;11.07;;;5.72;;
17510;SDS011;8873;48.818;9.422;2022-10-16T03:22:02;10.18;;;5.68;;
17510;SDS011;8873;48.818;9.422;2022-10-16T03:24:29;11.52;;;5.13;;
17510;SDS011;8873;48.818;9.422;2022-10-16T03:26:58;11.20;;;5.72;;
17510;SDS011;8873;48.818;9.422;2022-10-16T03:29:26;9.45;;;5.75;;
17510;SDS011;8873;48.818;9.422;2022-10-16T03:31:55;10.60;;;5.60;;
17510;SDS011;8873;48.818;9.422;2022-10-16T03:34:23;7.53;;;5.13;;
17510;SDS011;8873;48.818;9.422;2022-10-16T03:36:50;10.40;;;4.75;;
17510;SDS011;8873;48.818;9.422;2022-10-16T03:39:18;10.93;;;6.05;;
17510;SDS011;8873;48.818;9.422;2022-10-16T03:41:45;8.30;;;4.97;;
17510;SDS011;8873;48.818;9.422;2022-10-16T03:44:14;12.05;;;4.75;;
17510;SDS011;8873;48.818;9.422;2022-10-16T03:46:42;17.65;;;4.97;;
17510;SDS011;8873;48.818;9.422;2022-10-16T03:49:10;8.93;;;4.80;;
17510;SDS011;8873;48.818;9.422;2022-10-16T03:51:38;9.23;;;4.43;;
17510;SDS011;8873;48.818;9.422;2022-10-16T03:54:05;14.30;;;4.97;;
17510;SDS011;8873;48.818;9.422;2022-10-16T03:56:33;8.38;;;4.65;;
17510;SDS011;8873;48.818;9.422;2022-10-16T03:59:00;9.35;;;5.22;;
17510;SDS011;8873;48.818;9.422;2022-10-16T04:01:29;12.45;;;5.10;;
17510;SDS011;8873;48.818;9.422;2022-10-16T04:03:57;6.97;;;5.22;;
17510;SDS011;8873;48.818;9.422;2022-10-16T04:06:24;8.35;;;5.15;;
17510;SDS011;8873;48.818;9.422;2022-10-16T04:08:52;8.02;;;5.28;;
17510;SDS011;8873;48.818;9.422;2022-10-16T04:11:19;14.23;;;4.88;;
17510;SDS011;8873;48.818;9.422;2022-10-16T04:13:47;11.18;;;4.88;;
17510;SDS011;8873;48.818;9.422;2022-10-16T04:16:15;7.90;;;4.22;;
17510;SDS011;8873;48.818;9.422;2022-10-16T04:18:44;8.27;;;5.60;;
17510;SDS011;8873;48.818;9.422;2022-10-16T04:21:11;7.93;;;4.18;;
17510;SDS011;8873;48.818;9.422;2022-10-16T04:23:39;8.82;;;4.75;;
17510;SDS011;8873;48.818;9.422;2022-10-16T04:26:06;5.35;;;4.32;;
17510;SDS011;8873;48.818;9.422;2022-10-16T04:28:34;11.75;;;4.60;;
17510;SDS011;8873;48.818;9.422;2022-10-16T04:31:03;9.75;;;4.90;;
17510;SDS011;8873;48.818;9.422;2022-10-16T04:33:30;6.90;;;4.30;;
17510;SDS011;8873;48.818;9.422;2022-10-16T04:36:00;10.38;;;5.45;;
17510;SDS011;8873;48.818;9.422;2022-10-16T04:38:28;8.65;;;4.13;;
17510;SDS011;8873;48.818;9.422;2022-10-16T04:40:55;9.68;;;5.15;;
17510;SDS011;8873;48.818;9.422;2022-10-16T04:43:23;10.23;;;4.35;;
17510;SDS011;8873;48.818;9.422;2022-10-16T04:45:51;11.30;;;4.72;;
17510;SDS011;8873;48.818;9.422;2022-10-16T04:48:19;6.55;;;4.00;;
17510;SDS011;8873;48.818;9.422;2022-10-16T04:50:46;8.10;;;3.90;;
17510;SDS011;8873;48.818;9.422;2022-10-16T04:53:21;5.35;;;3.85;;
17510;SDS011;8873;48.818;9.422;2022-10-16T04:55:49;12.50;;;4.95;;
17510;SDS011;8873;48.818;9.422;2022-10-16T04:58:17;17.45;;;5.35;;
17510;SDS011;8873;48.818;9.422;2022-10-16T05:00:45;10.23;;;5.45;;
17510;SDS011;8873;48.818;9.422;2022-10-16T05:03:13;10.00;;;4.75;;
17510;SDS011;8873;48.818;9.422;2022-10-16T05:05:42;7.50;;;4.85;;
17510;SDS011;8873;48.818;9.422;2022-10-16T05:08:10;12.52;;;5.40;;
17510;SDS011;8873;48.818;9.422;2022-10-16T05:10:39;16.35;;;5.10;;
17510;SDS011;8873;48.818;9.422;2022-10-16T05:13:06;7.40;;;5.15;;
17510;SDS011;8873;48.818;9.422;2022-10-16T05:15:34;5.32;;;4.30;;
17510;SDS011;8873;48.818;9.422;2022-10-16T05:18:01;5.30;;;3.95;;
17510;SDS011;8873;48.818;9.422;2022-10-16T05:20:29;7.80;;;5.13;;
17510;SDS011;8873;48.818;9.422;2022-10-16T05:22:57;12.38;;;5.00;;
17510;SDS011;8873;48.818;9.422;2022-10-16T05:25:24;8.45;;;5.03;;
17510;SDS011;8873;48.818;9.422;2022-10-16T05:27:53;8.18;;;6.07;;
17510;SDS011;8873;48.818;9.422;2022-10-16T05:30:21;5.95;;;5.00;;
17510;SDS011;8873;48.818;9.422;2022-10-16T05:32:49;11.18;;;5.78;;
17510;SDS011;8873;48.818;9.422;2022-10-16T05:35:17;8.50;;;4.72;;
17510;SDS011;8873;48.818;9.422;2022-10-16T05:37:45;10.05;;;5.05;;
17510;SDS011;8873;48.818;9.422;2022-10-16T05:40:12;10.35;;;5.03;;
17510;SDS011;8873;48.818;9.422;2022-10-16T05:42:40;6.75;;;4.85;;
17510;SDS011;8873;48.818;9.422;2022-10-16T05:45:09;9.30;;;5.05;;
17510;SDS011;8873;48.818;9.422;2022-10-16T05:47:37;8.70;;;4.40;;
17510;SDS011;8873;48.818;9.422;2022-10-16T05:50:05;9.90;;;4.35;;
17510;SDS011;8873;48.818;9.422;2022-10-16T05:52:33;7.05;;;4.15;;
17510;SDS011;8873;48.818;9.422;2022-10-16T05:55:00;6.78;;;3.90;;
17510;SDS011;8873;48.818;9.422;2022-10-16T05:57:28;7.47;;;3.53;;
17510;SDS011;8873;48.818;9.422;2022-10-16T05:59:56;5.75;;;4.10;;
17510;SDS011;8873;48.818;9.422;2022-10-16T06:02:24;5.22;;;3.90;;
17510;SDS011;8873;48.818;9.422;2022-10-16T06:04:52;10.95;;;4.53;;
17510;SDS011;8873;48.818;9.422;2022-10-16T06:07:21;9.27;;;5.78;;
17510;SDS011;8873;48.818;9.422;2022-10-16T06:09:49;6.50;;;4.65;;
17510;SDS011;8873;48.818;9.422;2022-10-16T06:12:17;7.85;;;4.28;;
17510;SDS011;8873;48.818;9.422;2022-10-16T06:14:44;5.82;;;4.05;;
17510;SDS011;8873;48.818;9.422;2022-10-16T06:17:13;4.30;;;3.42;;
17510;SDS011;8873;48.818;9.422;2022-10-16T06:19:42;6.15;;;4.20;;
17510;SDS011;8873;48.818;9.422;2022-10-16T06:22:09;9.85;;;4.22;;
17510;SDS011;8873;48.818;9.422;2022-10-16T06:24:37;6.07;;;4.50;;
17510;SDS011;8873;48.818;9.422;2022-10-16T06:27:04;4.95;;;4.30;;
17510;SDS011;8873;48.818;9.422;2022-10-16T06:29:32;12.30;;;5.28;;
17510;SDS011;8873;48.818;9.422;2022-10-16T06:32:00;9.27;;;5.47;;
17510;SDS011;8873;48.818;9.422;2022-10-16T06:34:27;6.93;;;4.60;;
17510;SDS011;8873;48.818;9.422;2022-10-16T06:36:56;8.15;;;4.68;;
17510;SDS011;8873;48.818;9.422;2022-10-16T06:39:24;10.45;;;5.32;;
17510;SDS011;8873;48.818;9.422;2022-10-16T06:41:51;10.48;;;4.90;;
17510;SDS011;8873;48.818;9.422;2022-10-16T06:44:19;9.65;;;4.82;;
17510;SDS011;8873;48.818;9.422;2022-10-16T06:46:46;9.48;;;6.20;;
17510;SDS011;8873;48.818;9.422;2022-10-16T06:49:14;12.63;;;6.45;;
17510;SDS011;8873;48.818;9.422;2022-10-16T06:51:47;14.07;;;5.97;;
17510;SDS011;8873;48.818;9.422;2022-10-16T06:54:16;8.98;;;5.28;;
17510;SDS011;8873;48.818;9.422;2022-10-16T06:56:44;12.50;;;4.95;;
17510;SDS011;8873;48.818;9.422;2022-10-16T06:59:12;7.90;;;5.20;;
17510;SDS011;8873;48.818;9.422;2022-10-16T07:01:40;9.68;;;5.32;;
17510;SDS011;8873;48.818;9.422;2022-10-16T07:04:10;7.07;;;5.07;;
17510;SDS011;8873;48.818;9.422;2022-10-16T07:06:38;6.65;;;4.32;;
17510;SDS011;8873;48.818;9.422;2022-10-16T07:09:07;7.78;;;5.50;;
17510;SDS011;8873;48.818;9.422;2022-10-16T07:11:38;4.95;;;4.47;;
17510;SDS011;8873;48.818;9.422;2022-10-16T07:14:09;8.98;;;4.28;;
17510;SDS011;8873;48.818;9.422;2022-10-16T07:16:39;7.82;;;4.95;;
17510;SDS011;8873;48.818;9.422;2022-10-16T07:19:07;6.82;;;4.78;;
17510;SDS011;8873;48.818;9.422;2022-10-16T07:21:35;6.78;;;4.50;;
17510;SDS011;8873;48.818;9.422;2022-10-16T07:24:03;6.13;;;3.97;;
17510;SDS011;8873;48.818;9.422;2022-10-16T07:26:32;4.72;;;3.75;;
17510;SDS011;8873;48.818;9.422;2022-10-16T07:29:02;9.35;;;4.60;;
17510;SDS011;8873;48.818;9.422;2022-10-16T07:31:30;7.55;;;4.78;;
17510;SDS011;8873;48.818;9.422;2022-10-16T07:33:58;5.20;;;4.53;;
17510;SDS011;8873;48.818;9.422;2022-10-16T07:36:28;5.50;;;4.00;;
17510;SDS011;8873;48.818;9.422;2022-10-16T07:38:56;7.32;;;4.35;;
17510;SDS011;8873;48.818;9.422;2022-10-16T07:41:25;20.55;;;3.72;;
17510;SDS011;8873;48.818;9.422;2022-10-16T07:43:53;6.20;;;4.32;;
17510;SDS011;8873;48.818;9.422;2022-10-16T07:46:24;6.90;;;4.00;;
17510;SDS011;8873;48.818;9.422;2022-10-16T07:48:51;6.75;;;3.72;;
17510;SDS011;8873;48.818;9.422;2022-10-16T07:51:19;6.75;;;4.05;;
17510;SDS011;8873;48.818;9.422;2022-10-16T07:53:50;5.00;;;4.20;;
17510;SDS011;8873;48.818;9.422;2022-10-16T07:56:18;4.40;;;4.00;;
17510;SDS011;8873;48.818;9.422;2022-10-16T07:58:46;8.25;;;3.38;;
17510;SDS011;8873;48.818;9.422;2022-10-16T08:01:16;6.20;;;3.92;;
17510;SDS011;8873;48.818;9.422;2022-10-16T08:03:48;4.78;;;3.22;;
17510;SDS011;8873;48.818;9.422;2022-10-16T08:06:16;5.47;;;3.03;;
17510;SDS011;8873;48.818;9.422;2022-10-16T08:08:48;3.10;;;2.90;;
17510;SDS011;8873;48.818;9.422;2022-10-16T08:11:16;3.15;;;2.85;;
17510;SDS011;8873;48.818;9.422;2022-10-16T08:13:44;3.90;;;3.05;;
17510;SDS011;8873;48.818;9.422;2022-10-16T08:16:11;12.40;;;3.53;;
17510;SDS011;8873;48.818;9.422;2022-10-16T08:18:39;6.00;;;3.50;;
17510;SDS011;8873;48.818;9.422;2022-10-16T08:21:12;4.32;;;3.65;;
17510;SDS011;8873;48.818;9.422;2022-10-16T08:23:46;5.68;;;3.90;;
17510;SDS011;8873;48.818;9.422;2022-10-16T08:26:23;6.78;;;3.30;;
17510;SDS011;8873;48.818;9.422;2022-10-16T08:28:51;3.30;;;3.00;;
17510;SDS011;8873;48.818;9.422;2022-10-16T08:31:19;3.60;;;3.30;;
17510;SDS011;8873;48.818;9.422;2022-10-16T08:33:46;6.18;;;3.40;;
17510;SDS011;8873;48.818;9.422;2022-10-16T08:36:16;9.10;;;3.75;;
17510;SDS011;8873;48.818;9.422;2022-10-16T08:38:43;6.93;;;3.38;;
17510;SDS011;8873;48.818;9.422;2022-10-16T08:41:16;3.95;;;2.90;;
17510;SDS011;8873;48.818;9.422;2022-10-16T08:44:09;5.25;;;3.10;;
17510;SDS011;8873;48.818;9.422;2022-10-16T08:46:47;9.65;;;3.17;;
17510;SDS011;8873;48.818;9.422;2022-10-16T08:49:17;5.32;;;2.90;;
17510;SDS011;8873;48.818;9.422;2022-10-16T08:51:46;5.97;;;2.88;;
17510;SDS011;8873;48.818;9.422;2022-10-16T08:54:21;6.22;;;2.88;;
17510;SDS011;8873;48.818;9.422;2022-10-16T08:56:50;5.20;;;3.20;;
17510;SDS011;8873;48.818;9.422;2022-10-16T08:59:17;2.80;;;2.60;;
17510;SDS011;8873;48.818;9.422;2022-10-16T09:01:46;4.97;;;2.10;;
17510;SDS011;8873;48.818;9.422;2022-10-16T09:04:27;7.93;;;2.75;;
17510;SDS011;8873;48.818;9.422;2022-10-16T09:07:01;5.10;;;2.50;;
17510;SDS011;8873;48.818;9.422;2022-10-16T09:09:35;5.38;;;2.60;;
17510;SDS011;8873;48.818;9.422;2022-10-16T09:12:08;3.33;;;2.42;;
17510;SDS011;8873;48.818;9.422;2022-10-16T09:14:40;2.75;;;2.20;;
17510;SDS011;8873;48.818;9.422;2022-10-16T09:17:21;2.95;;;2.67;;
17510;SDS011;8873;48.818;9.422;2022-10-16T09:19:53;6.22;;;2.95;;
17510;SDS011;8873;48.818;9.422;2022-10-16T09:22:25;2.83;;;2.63;;
17510;SDS011;8873;48.818;9.422;2022-10-16T09:24:54;5.38;;;3.28;;
17510;SDS011;8873;48.818;9.422;2022-10-16T09:27:22;8.48;;;3.40;;
17510;SDS011;8873;48.818;9.422;2022-10-16T09:29:50;9.02;;;4.47;;
17510;SDS011;8873;48.818;9.422;2022-10-16T09:32:24;7.97;;;4.28;;
17510;SDS011;8873;48.818;9.422;2022-10-16T09:34:53;10.45;;;4.22;;
17510;SDS011;8873;48.818;9.422;2022-10-16T09:37:23;5.43;;;4.20;;
17510;SDS011;8873;48.818;9.422;2022-10-16T09:39:53;7.10;;;4.60;;
17510;SDS011;8873;48.818;9.422;2022-10-16T09:42:22;5.85;;;4.30;;
17510;SDS011;8873;48.818;9.422;2022-10-16T09:44:51;5.28;;;3.72;;
17510;SDS011;8873;48.818;9.422;2022-10-16T09:47:20;5.28;;;3.40;;
17510;SDS011;8873;48.818;9.422;2022-10-16T09:49:50;7.40;;;3.53;;
17510;SDS011;8873;48.818;9.422;2022-10-16T09:52:18;8.38;;;3.42;;
17510;SDS011;8873;48.818;9.422;2022-10-16T09:54:51;5.13;;;3.58;;
17510;SDS011;8873;48.818;9.422;2022-10-16T09:57:20;5.57;;;2.80;;
17510;SDS011;8873;48.818;9.422;2022-10-16T09:59:49;2.83;;;2.63;;
17510;SDS011;8873;48.818;9.422;2022-10-16T10:02:18;3.08;;;2.60;;
17510;SDS011;8873;48.818;9.422;2022-10-16T10:04:50;8.15;;;2.55;;
17510;SDS011;8873;48.818;9.422;2022-10-16T10:07:21;7.57;;;2.40;;
17510;SDS011;8873;48.818;9.422;2022-10-16T10:09:52;4.60;;;2.40;;
17510;SDS011;8873;48.818;9.422;2022-10-16T10:12:21;2.85;;;2.40;;
17510;SDS011;8873;48.818;9.422;2022-10-16T10:14:52;2.30;;;2.10;;
17510;SDS011;8873;48.818;9.422;2022-10-16T10:17:21;3.70;;;1.98;;
17510;SDS011;8873;48.818;9.422;2022-10-16T10:19:50;9.77;;;2.17;;
17510;SDS011;8873;48.818;9.422;2022-10-16T10:25:19;7.85;;;2.22;;
17510;SDS011;8873;48.818;9.422;2022-10-16T10:27:50;5.40;;;2.70;;
17510;SDS011;8873;48.818;9.422;2022-10-16T10:30:20;5.13;;;2.15;;
17510;SDS011;8873;48.818;9.422;2022-10-16T10:32:52;4.15;;;1.85;;
17510;SDS011;8873;48.818;9.422;2022-10-16T10:35:22;2.65;;;2.10;;
17510;SDS011;8873;48.818;9.422;2022-10-16T10:37:56;14.98;;;2.13;;
17510;SDS011;8873;48.818;9.422;2022-10-16T10:40:29;2.30;;;1.95;;
17510;SDS011;8873;48.818;9.422;2022-10-16T10:42:59;5.70;;;1.92;;
17510;SDS011;8873;48.818;9.422;2022-10-16T10:45:34;3.85;;;1.70;;
17510;SDS011;8873;48.818;9.422;2022-10-16T10:48:10;2.17;;;1.77;;
17510;SDS011;8873;48.818;9.422;2022-10-16T10:50:41;6.10;;;1.90;;
17510;SDS011;8873;48.818;9.422;2022-10-16T10:53:13;9.52;;;1.95;;
17510;SDS011;8873;48.818;9.422;2022-10-16T10:55:52;2.90;;;1.77;;
17510;SDS011;8873;48.818;9.422;2022-10-16T10:58:27;1.65;;;1.55;;
17510;SDS011;8873;48.818;9.422;2022-10-16T11:01:01;5.60;;;1.80;;
17510;SDS011;8873;48.818;9.422;2022-10-16T11:03:35;1.52;;;1.48;;
17510;SDS011;8873;48.818;9.422;2022-10-16T11:06:10;2.80;;;1.65;;
17510;SDS011;8873;48.818;9.422;2022-10-16T11:08:40;1.30;;;1.30;;
17510;SDS011;8873;48.818;9.422;2022-10-16T11:11:11;1.70;;;1.60;;
17510;SDS011;8873;48.818;9.422;2022-10-16T11:13:43;2.15;;;1.83;;
17510;SDS011;8873;48.818;9.422;2022-10-16T11:16:16;4.95;;;1.67;;
17510;SDS011;8873;48.818;9.422;2022-10-16T11:18:48;4.18;;;1.90;;
17510;SDS011;8873;48.818;9.422;2022-10-16T11:21:17;1.70;;;1.60;;
17510;SDS011;8873;48.818;9.422;2022-10-16T11:23:47;1.88;;;1.77;;
17510;SDS011;8873;48.818;9.422;2022-10-16T11:26:19;5.72;;;1.65;;
17510;SDS011;8873;48.818;9.422;2022-10-16T11:28:48;4.03;;;1.80;;
17510;SDS011;8873;48.818;9.422;2022-10-16T11:31:17;1.70;;;1.60;;
17510;SDS011;8873;48.818;9.422;2022-10-16T11:33:47;4.85;;;1.60;;
17510;SDS011;8873;48.818;9.422;2022-10-16T11:36:17;5.45;;;1.77;;
17510;SDS011;8873;48.818;9.422;2022-10-16T11:38:49;1.83;;;1.60;;
17510;SDS011;8873;48.818;9.422;2022-10-16T11:41:22;1.65;;;1.55;;
17510;SDS011;8873;48.818;9.422;2022-10-16T11:43:52;1.42;;;1.42;;
17510;SDS011;8873;48.818;9.422;2022-10-16T11:46:22;1.80;;;1.70;;
17510;SDS011;8873;48.818;9.422;2022-10-16T11:48:56;1.75;;;1.63;;
17510;SDS011;8873;48.818;9.422;2022-10-16T11:51:31;3.28;;;1.60;;
17510;SDS011;8873;48.818;9.422;2022-10-16T11:54:02;3.67;;;1.50;;
17510;SDS011;8873;48.818;9.422;2022-10-16T11:56:38;2.90;;;1.80;;
17510;SDS011;8873;48.818;9.422;2022-10-16T11:59:15;3.03;;;1.73;;
17510;SDS011;8873;48.818;9.422;2022-10-16T12:01:46;5.07;;;1.80;;
17510;SDS011;8873;48.818;9.422;2022-10-16T12:04:16;3.88;;;1.70;;
17510;SDS011;8873;48.818;9.422;2022-10-16T12:06:48;1.95;;;1.52;;
17510;SDS011;8873;48.818;9.422;2022-10-16T12:09:19;3.35;;;1.80;;
17510;SDS011;8873;48.818;9.422;2022-10-16T12:11:51;2.00;;;1.70;;
17510;SDS011;8873;48.818;9.422;2022-10-16T12:14:36;1.90;;;1.80;;
17510;SDS011;8873;48.818;9.422;2022-10-16T12:17:33;3.50;;;1.60;;
17510;SDS011;8873;48.818;9.422;2022-10-16T12:22:52;5.55;;;1.60;;
17510;SDS011;8873;48.818;9.422;2022-10-16T12:28:19;3.30;;;1.55;;
17510;SDS011;8873;48.818;9.422;2022-10-16T12:30:52;3.55;;;1.90;;
17510;SDS011;8873;48.818;9.422;2022-10-16T12:33:21;1.80;;;1.70;;
17510;SDS011;8873;48.818;9.422;2022-10-16T12:35:49;1.58;;;1.58;;
17510;SDS011;8873;48.818;9.422;2022-10-16T12:38:50;1.67;;;1.60;;
17510;SDS011;8873;48.818;9.422;2022-10-16T12:41:32;1.92;;;1.50;;
17510;SDS011;8873;48.818;9.422;2022-10-16T12:46:49;3.53;;;1.90;;
17510;SDS011;8873;48.818;9.422;2022-10-16T12:49:29;6.20;;;1.65;;
17510;SDS011;8873;48.818;9.422;2022-10-16T12:51:57;1.60;;;1.60;;
17510;SDS011;8873;48.818;9.422;2022-10-16T12:54:27;3.28;;;1.80;;
17510;SDS011;8873;48.818;9.422;2022-10-16T12:57:13;2.67;;;1.50;;
17510;SDS011;8873;48.818;9.422;2022-10-16T12:59:57;1.92;;;1.80;;
17510;SDS011;8873;48.818;9.422;2022-10-16T13:05:44;1.85;;;1.38;;
17510;SDS011;8873;48.818;9.422;2022-10-16T13:08:19;1.65;;;1.55;;
17510;SDS011;8873;48.818;9.422;2022-10-16T13:14:11;3.72;;;2.05;;
17510;SDS011;8873;48.818;9.422;2022-10-16T13:16:47;2.63;;;1.88;;
17510;SDS011;8873;48.818;9.422;2022-10-16T13:19:27;4.05;;;1.80;;
17510;SDS011;8873;48.818;9.422;2022-10-16T13:22:00;4.88;;;1.70;;
17510;SDS011;8873;48.818;9.422;2022-10-16T13:24:38;3.63;;;1.50;;
17510;SDS011;8873;48.818;9.422;2022-10-16T13:27:10;3.70;;;1.50;;
17510;SDS011;8873;48.818;9.422;2022-10-16T13:29:42;4.30;;;1.80;;
17510;SDS011;8873;48.818;9.422;2022-10-16T13:33:02;2.03;;;1.80;;
17510;SDS011;8873;48.818;9.422;2022-10-16T13:38:30;2.80;;;1.70;;
17510;SDS011;8873;48.818;9.422;2022-10-16T13:41:01;3.90;;;1.88;;
17510;SDS011;8873;48.818;9.422;2022-10-16T13:43:38;4.05;;;1.85;;
17510;SDS011;8873;48.818;9.422;2022-10-16T13:46:16;7.07;;;1.70;;
17510;SDS011;8873;48.818;9.422;2022-10-16T13:49:03;2.08;;;1.98;;
17510;SDS011;8873;48.818;9.422;2022-10-16T13:51:34;2.55;;;1.63;;
17510;SDS011;8873;48.818;9.422;2022-10-16T13:54:03;4.10;;;1.98;;
17510;SDS011;8873;48.818;9.422;2022-10-16T13:56:31;2.17;;;2.00;;
17510;SDS011;8873;48.818;9.422;2022-10-16T13:59:03;4.15;;;1.80;;
17510;SDS011;8873;48.818;9.422;2022-10-16T14:01:39;3.08;;;1.60;;
17510;SDS011;8873;48.818;9.422;2022-10-16T14:04:11;3.33;;;1.70;;
17510;SDS011;8873;48.818;9.422;2022-10-16T14:06:40;3.13;;;1.80;;
17510;SDS011;8873;48.818;9.422;2022-10-16T14:09:18;2.22;;;1.77;;
17510;SDS011;8873;48.818;9.422;2022-10-16T14:11:53;2.78;;;1.80;;
17510;SDS011;8873;48.818;9.422;2022-10-16T14:14:21;2.20;;;1.92;;
17510;SDS011;8873;48.818;9.422;2022-10-16T14:16:48;1.95;;;1.85;;
17510;SDS011;8873;48.818;9.422;2022-10-16T14:19:18;5.15;;;2.05;;
17510;SDS011;8873;48.818;9.422;2022-10-16T14:21:50;5.13;;;1.80;;
17510;SDS011;8873;48.818;9.422;2022-10-16T14:24:27;1.70;;;1.60;;
17510;SDS011;8873;48.818;9.422;2022-10-16T14:26:58;3.15;;;2.00;;
17510;SDS011;8873;48.818;9.422;2022-10-16T14:29:26;2.53;;;1.73;;
17510;SDS011;8873;48.818;9.422;2022-10-16T14:31:58;1.80;;;1.70;;
17510;SDS011;8873;48.818;9.422;2022-10-16T14:34:29;4.97;;;1.58;;
17510;SDS011;8873;48.818;9.422;2022-10-16T14:37:01;3.60;;;1.95;;
17510;SDS011;8873;48.818;9.422;2022-10-16T14:39:37;2.00;;;1.80;;
17510;SDS011;8873;48.818;9.422;2022-10-16T14:42:11;4.32;;;2.05;;
17510;SDS011;8873;48.818;9.422;2022-10-16T14:44:45;3.08;;;1.80;;
17510;SDS011;8873;48.818;9.422;2022-10-16T14:47:27;2.10;;;1.98;;
17510;SDS011;8873;48.818;9.422;2022-10-16T14:50:00;2.67;;;1.63;;
17510;SDS011;8873;48.818;9.422;2022-10-16T14:52:36;4.82;;;1.85;;
17510;SDS011;8873;48.818;9.422;2022-10-16T14:55:15;2.75;;;1.92;;
17510;SDS011;8873;48.818;9.422;2022-10-16T14:58:13;3.17;;;1.90;;
17510;SDS011;8873;48.818;9.422;2022-10-16T15:01:22;4.20;;;1.90;;
17510;SDS011;8873;48.818;9.422;2022-10-16T15:03:40;6.43;;;2.10;;
17510;SDS011;8873;48.818;9.422;2022-10-16T15:06:16;5.93;;;2.38;;
17510;SDS011;8873;48.818;9.422;2022-10-16T15:09:00;4.70;;;1.90;;
17510;SDS011;8873;48.818;9.422;2022-10-16T15:11:49;7.97;;;2.10;;
17510;SDS011;8873;48.818;9.422;2022-10-16T15:14:19;2.13;;;1.80;;
17510;SDS011;8873;48.818;9.422;2022-10-16T15:16:47;6.93;;;1.92;;
17510;SDS011;8873;48.818;9.422;2022-10-16T15:19:15;13.57;;;2.22;;
17510;SDS011;8873;48.818;9.422;2022-10-16T15:21:59;9.90;;;4.70;;
17510;SDS011;8873;48.818;9.422;2022-10-16T15:24:26;10.65;;;4.55;;
17510;SDS011;8873;48.818;9.422;2022-10-16T15:26:55;14.52;;;6.63;;
17510;SDS011;8873;48.818;9.422;2022-10-16T15:29:23;8.27;;;3.33;;
17510;SDS011;8873;48.818;9.422;2022-10-16T15:31:51;11.00;;;5.30;;
17510;SDS011;8873;48.818;9.422;2022-10-16T15:34:21;6.30;;;4.10;;
17510;SDS011;8873;48.818;9.422;2022-10-16T15:36:49;9.18;;;3.30;;
17510;SDS011;8873;48.818;9.422;2022-10-16T15:39:17;5.55;;;3.00;;